Time;durP1;ratioP1;P1;durP2;ratioP2;P2;SDS_P1;SDS_P2;PMS_P1;PMS_P2;Temp;Humidity;BMP_temperature;BMP_pressure;BME280_temperature;BME280_humidity;BME280_pressure;Samples;Min_cycle;Max_cycle;Signal;HPM_P1;HPM_P2
2023/08/13 00:06:16;;;;;;;4.17;2.77;;;;;;;;;;4999661;28;20041;-61
2023/08/13 00:24:22;;;;;;;3.83;2.40;;;;;;;;;;5039659;23;20071;-60
2023/08/13 00:26:47;;;;;;;5.32;2.75;;;;;;;;;;5050106;28;20029;-60
2023/08/13 00:29:12;;;;;;;3.43;2.80;;;;;;;;;;5047241;28;20482;-60
2023/08/13 00:31:38;;;;;;;3.77;2.57;;;;;;;;;;5047539;28;20521;-61
2023/08/13 00:34:03;;;;;;;3.45;2.83;;;;;;;;;;5047266;28;20029;-61
2023/08/13 00:36:28;;;;;;;4.17;2.90;;;;;;;;;;5047219;28;20495;-61
2023/08/13 00:38:53;;;;;;;4.33;2.70;;;;;;;;;;5046127;28;20582;-61
2023/08/13 00:41:18;;;;;;;4.37;2.57;;;;;;;;;;5047051;28;20280;-60
2023/08/13 00:43:44;;;;;;;3.87;2.20;;;;;;;;;;5045044;23;20323;-62
2023/08/13 00:46:09;;;;;;;2.83;2.23;;;;;;;;;;5043441;28;20045;-63
2023/08/13 00:48:36;;;;;;;3.58;2.40;;;;;;;;;;5027186;28;20311;-62
2023/08/13 00:51:01;;;;;;;3.42;2.60;;;;;;;;;;5045303;28;20033;-63
2023/08/13 00:53:27;;;;;;;4.00;2.50;;;;;;;;;;5029778;28;20039;-63
2023/08/13 00:55:52;;;;;;;4.90;2.83;;;;;;;;;;5045351;28;20048;-63
2023/08/13 00:58:17;;;;;;;3.80;2.43;;;;;;;;;;5045184;28;20423;-62
2023/08/13 01:00:42;;;;;;;4.23;2.97;;;;;;;;;;5052268;28;20331;-61
2023/08/13 01:03:08;;;;;;;5.18;3.25;;;;;;;;;;5045726;28;20331;-63
2023/08/13 01:05:47;;;;;;;5.40;2.90;;;;;;;;;;5046920;28;20082;-62
2023/08/13 01:08:31;;;;;;;4.60;2.85;;;;;;;;;;5026825;28;20073;-62
2023/08/13 01:11:17;;;;;;;3.78;2.50;;;;;;;;;;5045385;28;20044;-63
2023/08/13 01:13:44;;;;;;;4.35;2.38;;;;;;;;;;5030307;28;20032;-63
2023/08/13 01:16:09;;;;;;;3.35;2.70;;;;;;;;;;5027003;28;20056;-62
2023/08/13 01:18:34;;;;;;;3.45;2.70;;;;;;;;;;5029199;28;20021;-62
2023/08/13 01:21:00;;;;;;;3.75;2.80;;;;;;;;;;5045335;28;20406;-62
2023/08/13 01:23:25;;;;;;;3.27;2.70;;;;;;;;;;5045295;28;20088;-63
2023/08/13 01:26:03;;;;;;;5.03;2.77;;;;;;;;;;5044511;28;20008;-62
2023/08/13 01:28:37;;;;;;;5.10;2.78;;;;;;;;;;5046780;28;20432;-62
2023/08/13 01:31:11;;;;;;;3.40;2.80;;;;;;;;;;5044809;28;20029;-62
2023/08/13 01:33:36;;;;;;;3.00;2.60;;;;;;;;;;5027545;28;20064;-62
2023/08/13 01:36:03;;;;;;;4.15;2.47;;;;;;;;;;5046512;28;20502;-63
2023/08/13 01:38:29;;;;;;;3.08;2.50;;;;;;;;;;5047061;28;20044;-62
2023/08/13 01:40:56;;;;;;;4.60;2.72;;;;;;;;;;5027366;28;20036;-63
2023/08/13 01:43:21;;;;;;;3.50;2.25;;;;;;;;;;5044720;28;20032;-62
2023/08/13 01:45:46;;;;;;;3.53;2.60;;;;;;;;;;5044468;28;20526;-62
2023/08/13 01:48:11;;;;;;;4.40;2.77;;;;;;;;;;5047874;28;20320;-63
2023/08/13 01:50:37;;;;;;;3.13;2.10;;;;;;;;;;5045285;28;20291;-62
2023/08/13 01:53:02;;;;;;;3.05;2.40;;;;;;;;;;5044646;28;20056;-61
2023/08/13 01:55:27;;;;;;;3.63;2.40;;;;;;;;;;5044606;28;20033;-61
2023/08/13 01:57:53;;;;;;;4.55;2.42;;;;;;;;;;5026347;28;20029;-62
2023/08/13 02:00:18;;;;;;;3.30;2.60;;;;;;;;;;5044981;28;20029;-62
2023/08/13 02:02:43;;;;;;;4.53;2.20;;;;;;;;;;5039549;28;20030;-63
2023/08/13 02:05:08;;;;;;;3.60;2.40;;;;;;;;;;5017350;28;20461;-63
2023/08/13 02:07:34;;;;;;;3.50;2.35;;;;;;;;;;5044048;28;20665;-62
2023/08/13 02:09:59;;;;;;;4.45;2.40;;;;;;;;;;5044440;28;20049;-60
2023/08/13 02:12:24;;;;;;;3.17;2.30;;;;;;;;;;5044738;28;20075;-63
2023/08/13 02:14:50;;;;;;;3.33;2.63;;;;;;;;;;5044275;28;20287;-61
2023/08/13 02:17:15;;;;;;;3.83;2.40;;;;;;;;;;5055230;28;20290;-61
2023/08/13 02:19:40;;;;;;;2.63;2.23;;;;;;;;;;5031487;28;20721;-62
2023/08/13 02:22:06;;;;;;;4.38;2.42;;;;;;;;;;5044971;28;20308;-63
2023/08/13 02:24:31;;;;;;;4.50;2.65;;;;;;;;;;5040972;28;20033;-62
2023/08/13 02:26:56;;;;;;;3.50;2.63;;;;;;;;;;5044481;28;20048;-64
2023/08/13 02:29:21;;;;;;;3.53;2.40;;;;;;;;;;5046400;28;20450;-63
2023/08/13 02:31:47;;;;;;;4.10;2.80;;;;;;;;;;5044730;28;20272;-63
2023/08/13 02:34:12;;;;;;;2.73;2.30;;;;;;;;;;5044484;28;20055;-62
2023/08/13 02:36:37;;;;;;;3.33;2.70;;;;;;;;;;5044182;28;20310;-62
2023/08/13 02:39:02;;;;;;;3.40;2.63;;;;;;;;;;5046814;28;20341;-63
2023/08/13 02:41:27;;;;;;;4.43;2.60;;;;;;;;;;5044819;28;20514;-63
2023/08/13 02:43:54;;;;;;;5.80;2.70;;;;;;;;;;5047612;28;20525;-63
2023/08/13 02:46:19;;;;;;;3.08;2.47;;;;;;;;;;5045987;28;20514;-61
2023/08/13 02:48:45;;;;;;;3.85;2.75;;;;;;;;;;5050775;28;20774;-62
2023/08/13 02:51:11;;;;;;;2.95;2.47;;;;;;;;;;5058555;28;20040;-63
2023/08/13 02:53:36;;;;;;;3.08;2.30;;;;;;;;;;5067391;28;20041;-62
2023/08/13 02:56:01;;;;;;;2.53;2.23;;;;;;;;;;5053826;28;20231;-62
2023/08/13 02:58:26;;;;;;;4.23;2.40;;;;;;;;;;5051685;28;20060;-62
2023/08/13 03:00:52;;;;;;;3.03;2.47;;;;;;;;;;5047478;28;20274;-62
2023/08/13 03:03:17;;;;;;;3.88;2.63;;;;;;;;;;5037854;28;20045;-61
2023/08/13 03:05:42;;;;;;;4.97;2.53;;;;;;;;;;5038040;28;20094;-61
2023/08/13 03:08:08;;;;;;;3.53;2.60;;;;;;;;;;5058061;28;20143;-61
2023/08/13 03:10:33;;;;;;;4.45;2.53;;;;;;;;;;5066043;28;20101;-62
2023/08/13 03:12:58;;;;;;;5.43;2.97;;;;;;;;;;5067249;28;20024;-63
2023/08/13 03:15:23;;;;;;;3.53;2.50;;;;;;;;;;5060188;28;20311;-62
2023/08/13 03:17:48;;;;;;;3.53;2.70;;;;;;;;;;5046796;28;20075;-64
2023/08/13 03:20:14;;;;;;;3.43;2.37;;;;;;;;;;5045098;28;20502;-63
2023/08/13 03:22:39;;;;;;;5.00;2.70;;;;;;;;;;5066798;28;20097;-62
2023/08/13 03:25:04;;;;;;;5.10;2.40;;;;;;;;;;5045261;28;20111;-61
2023/08/13 03:27:30;;;;;;;3.70;2.80;;;;;;;;;;5028968;28;20824;-61
2023/08/13 03:29:55;;;;;;;3.63;2.50;;;;;;;;;;5059868;28;20044;-62
2023/08/13 03:32:20;;;;;;;3.43;2.70;;;;;;;;;;5066918;28;20271;-63
2023/08/13 03:34:45;;;;;;;3.80;2.77;;;;;;;;;;5066586;28;20373;-61
2023/08/13 03:37:11;;;;;;;4.73;2.80;;;;;;;;;;5046888;28;20163;-63
2023/08/13 03:39:36;;;;;;;5.53;2.70;;;;;;;;;;5054411;28;20090;-62
2023/08/13 03:42:01;;;;;;;3.50;2.40;;;;;;;;;;5066433;28;20065;-62
2023/08/13 03:44:26;;;;;;;4.53;2.67;;;;;;;;;;5066804;28;20099;-62
2023/08/13 03:46:51;;;;;;;4.47;2.80;;;;;;;;;;5049662;28;20103;-63
2023/08/13 03:49:17;;;;;;;3.03;2.60;;;;;;;;;;5050709;28;20314;-63
2023/08/13 03:51:42;;;;;;;4.00;2.63;;;;;;;;;;5066658;28;20040;-61
2023/08/13 03:54:07;;;;;;;4.47;2.60;;;;;;;;;;5066505;28;20031;-62
2023/08/13 03:56:32;;;;;;;4.07;2.60;;;;;;;;;;5053035;28;20040;-63
2023/08/13 03:58:58;;;;;;;4.70;2.90;;;;;;;;;;5054606;28;20290;-63
2023/08/13 04:01:23;;;;;;;3.17;2.50;;;;;;;;;;5066816;28;20395;-62
2023/08/13 04:03:48;;;;;;;3.43;2.50;;;;;;;;;;5066555;28;20039;-62
2023/08/13 04:06:13;;;;;;;3.47;2.43;;;;;;;;;;5055805;28;20369;-62
2023/08/13 04:08:38;;;;;;;4.93;2.80;;;;;;;;;;5045714;28;20136;-63
2023/08/13 04:11:04;;;;;;;3.67;2.93;;;;;;;;;;5046225;28;20291;-62
2023/08/13 04:13:29;;;;;;;3.85;2.70;;;;;;;;;;5046271;28;20748;-61
2023/08/13 04:15:54;;;;;;;4.27;2.97;;;;;;;;;;5055617;28;20516;-62
2023/08/13 04:18:19;;;;;;;3.90;2.67;;;;;;;;;;5058685;28;20036;-61
2023/08/13 04:20:45;;;;;;;4.53;2.83;;;;;;;;;;5052421;28;20091;-61
2023/08/13 04:23:10;;;;;;;3.58;2.75;;;;;;;;;;5028058;28;20025;-62
2023/08/13 04:25:35;;;;;;;3.27;2.70;;;;;;;;;;5045882;28;20115;-62
2023/08/13 04:28:01;;;;;;;4.20;2.60;;;;;;;;;;5049188;28;20271;-62
2023/08/13 04:30:26;;;;;;;3.55;2.60;;;;;;;;;;5049152;28;20521;-62
2023/08/13 04:32:52;;;;;;;3.40;2.57;;;;;;;;;;5053672;28;20119;-63
2023/08/13 04:35:17;;;;;;;4.43;2.80;;;;;;;;;;5059123;28;20125;-62
2023/08/13 04:37:42;;;;;;;4.20;2.90;;;;;;;;;;5052917;28;20033;-62
2023/08/13 04:40:08;;;;;;;3.83;2.70;;;;;;;;;;5049283;28;20505;-62
2023/08/13 04:42:33;;;;;;;3.80;2.60;;;;;;;;;;5027680;28;20093;-62
2023/08/13 04:44:58;;;;;;;4.47;2.77;;;;;;;;;;5044571;28;20348;-63
2023/08/13 04:47:23;;;;;;;4.03;2.80;;;;;;;;;;5050200;28;20091;-62
2023/08/13 04:49:49;;;;;;;3.47;3.00;;;;;;;;;;5048196;28;20072;-65
2023/08/13 04:52:14;;;;;;;3.25;2.72;;;;;;;;;;5046809;28;20819;-63
2023/08/13 04:54:39;;;;;;;4.07;2.63;;;;;;;;;;5065428;28;20040;-63
2023/08/13 04:57:04;;;;;;;3.20;2.53;;;;;;;;;;5038860;28;20283;-62
2023/08/13 04:59:30;;;;;;;4.13;2.87;;;;;;;;;;5054638;28;20047;-61
2023/08/13 05:01:55;;;;;;;4.10;2.72;;;;;;;;;;5045216;28;20283;-63
2023/08/13 05:04:21;;;;;;;5.35;3.08;;;;;;;;;;5044310;28;20076;-62
2023/08/13 05:06:46;;;;;;;4.30;2.77;;;;;;;;;;5046382;28;20040;-61
2023/08/13 05:09:12;;;;;;;6.13;2.80;;;;;;;;;;5049007;28;20301;-62
2023/08/13 05:11:37;;;;;;;4.97;2.90;;;;;;;;;;5045098;28;20272;-62
2023/08/13 05:14:02;;;;;;;4.78;2.88;;;;;;;;;;5044800;28;20099;-60
2023/08/13 05:16:27;;;;;;;5.07;3.10;;;;;;;;;;5044852;28;20048;-63
2023/08/13 05:18:53;;;;;;;4.57;2.83;;;;;;;;;;5050934;28;20132;-63
2023/08/13 05:21:18;;;;;;;5.53;3.10;;;;;;;;;;5044849;28;20704;-62
2023/08/13 05:23:43;;;;;;;4.65;3.08;;;;;;;;;;5046547;28;20370;-62
2023/08/13 05:26:13;;;;;;;6.40;3.13;;;;;;;;;;5044011;28;20486;-63
2023/08/13 05:28:38;;;;;;;4.43;2.92;;;;;;;;;;5051779;28;20138;-62
2023/08/13 05:31:03;;;;;;;4.40;2.77;;;;;;;;;;5043647;28;20060;-64
2023/08/13 05:33:28;;;;;;;4.73;3.10;;;;;;;;;;5044693;28;20287;-61
2023/08/13 05:35:54;;;;;;;3.53;2.60;;;;;;;;;;5045130;28;20275;-62
2023/08/13 05:38:19;;;;;;;3.85;2.97;;;;;;;;;;5051224;28;20090;-61
2023/08/13 05:40:44;;;;;;;3.57;2.77;;;;;;;;;;5044523;28;20025;-61
2023/08/13 05:43:10;;;;;;;3.90;2.70;;;;;;;;;;5061928;28;20354;-63
2023/08/13 05:45:35;;;;;;;3.67;2.90;;;;;;;;;;5064513;28;20563;-61
2023/08/13 05:48:00;;;;;;;5.00;2.97;;;;;;;;;;5052989;28;20499;-62
2023/08/13 05:50:25;;;;;;;3.50;2.57;;;;;;;;;;5044111;28;20465;-63
2023/08/13 05:52:51;;;;;;;4.53;2.87;;;;;;;;;;5026896;28;20116;-62
2023/08/13 05:55:16;;;;;;;4.50;2.60;;;;;;;;;;5044682;28;20366;-61
2023/08/13 05:57:41;;;;;;;5.35;2.60;;;;;;;;;;5050534;28;20298;-63
2023/08/13 06:00:09;;;;;;;5.17;2.77;;;;;;;;;;5045019;28;20466;-62
2023/08/13 06:02:35;;;;;;;5.43;2.80;;;;;;;;;;5044842;28;20366;-62
2023/08/13 06:05:00;;;;;;;4.50;2.90;;;;;;;;;;5051925;28;20533;-61
2023/08/13 06:07:25;;;;;;;4.93;2.90;;;;;;;;;;5056995;28;20032;-64
2023/08/13 06:09:50;;;;;;;4.70;2.70;;;;;;;;;;5051309;28;20044;-60
2023/08/13 06:12:16;;;;;;;4.20;2.70;;;;;;;;;;5061863;28;20507;-63
2023/08/13 06:14:42;;;;;;;5.07;2.73;;;;;;;;;;5051673;28;20419;-62
2023/08/13 06:17:08;;;;;;;4.57;2.92;;;;;;;;;;5046383;28;20303;-64
2023/08/13 06:19:33;;;;;;;5.35;2.80;;;;;;;;;;5054691;28;20126;-62
2023/08/13 06:21:58;;;;;;;3.10;2.73;;;;;;;;;;5030002;28;20044;-61
2023/08/13 06:24:23;;;;;;;5.97;3.00;;;;;;;;;;5048459;28;20041;-62
2023/08/13 06:26:48;;;;;;;4.33;3.07;;;;;;;;;;5055564;28;20119;-62
2023/08/13 06:29:14;;;;;;;5.53;3.80;;;;;;;;;;5050443;28;20199;-61
2023/08/13 06:31:39;;;;;;;6.03;3.30;;;;;;;;;;5054117;28;20078;-61
2023/08/13 06:34:04;;;;;;;7.47;3.65;;;;;;;;;;5042814;28;20110;-62
2023/08/13 06:36:29;;;;;;;5.75;3.72;;;;;;;;;;5047454;28;20052;-60
2023/08/13 06:38:55;;;;;;;6.03;3.50;;;;;;;;;;5048415;28;20098;-62
2023/08/13 06:41:20;;;;;;;6.87;3.40;;;;;;;;;;5047469;28;20792;-62
2023/08/13 06:43:45;;;;;;;4.90;3.47;;;;;;;;;;5047856;28;20761;-61
2023/08/13 06:46:10;;;;;;;5.17;3.93;;;;;;;;;;5047709;28;20036;-62
2023/08/13 06:48:38;;;;;;;5.27;3.43;;;;;;;;;;5049106;28;20056;-63
2023/08/13 06:51:04;;;;;;;4.85;3.22;;;;;;;;;;5028823;28;20677;-63
2023/08/13 06:53:29;;;;;;;4.47;3.30;;;;;;;;;;5047528;28;20040;-62
2023/08/13 06:55:54;;;;;;;5.57;3.80;;;;;;;;;;5047710;28;20090;-63
2023/08/13 06:58:19;;;;;;;6.00;3.60;;;;;;;;;;5050941;28;20821;-62
2023/08/13 07:00:45;;;;;;;7.72;4.18;;;;;;;;;;5053126;28;20381;-64
2023/08/13 07:03:11;;;;;;;4.75;3.80;;;;;;;;;;5054253;28;20463;-62
2023/08/13 07:05:36;;;;;;;4.85;3.70;;;;;;;;;;5031794;28;20040;-61
2023/08/13 07:08:02;;;;;;;7.00;3.70;;;;;;;;;;5041566;28;20044;-63
2023/08/13 07:10:28;;;;;;;5.35;3.70;;;;;;;;;;5062350;28;20108;-61
2023/08/13 07:12:53;;;;;;;4.78;3.22;;;;;;;;;;5065218;28;20217;-62
2023/08/13 07:15:18;;;;;;;6.80;3.73;;;;;;;;;;5046665;28;20317;-64
2023/08/13 07:17:43;;;;;;;4.80;3.20;;;;;;;;;;5054436;28;20037;-60
2023/08/13 07:20:10;;;;;;;6.03;3.47;;;;;;;;;;5050407;28;20102;-63
2023/08/13 07:22:37;;;;;;;5.57;3.25;;;;;;;;;;5060013;28;20287;-62
2023/08/13 07:25:03;;;;;;;6.85;3.40;;;;;;;;;;5067142;28;20776;-63
2023/08/13 07:27:28;;;;;;;4.97;3.50;;;;;;;;;;5066010;28;20047;-61
2023/08/13 07:29:54;;;;;;;7.05;3.30;;;;;;;;;;5053297;28;20103;-62
2023/08/13 07:32:19;;;;;;;5.30;2.83;;;;;;;;;;5050555;28;20116;-63
2023/08/13 07:34:45;;;;;;;6.05;3.10;;;;;;;;;;5066945;28;20131;-61
2023/08/13 07:37:10;;;;;;;3.75;2.95;;;;;;;;;;5064438;28;20079;-61
2023/08/13 07:39:36;;;;;;;5.65;3.13;;;;;;;;;;5055441;28;20025;-62
2023/08/13 07:42:01;;;;;;;4.23;2.90;;;;;;;;;;5047454;28;20037;-61
2023/08/13 07:44:26;;;;;;;3.90;2.80;;;;;;;;;;5066625;28;20049;-62
2023/08/13 07:46:54;;;;;;;3.93;2.77;;;;;;;;;;5048856;28;20033;-60
2023/08/13 07:49:19;;;;;;;5.07;2.70;;;;;;;;;;5049600;28;20059;-62
2023/08/13 07:51:44;;;;;;;3.58;2.65;;;;;;;;;;5064237;28;20115;-60
2023/08/13 07:54:09;;;;;;;7.70;2.77;;;;;;;;;;5046368;28;20497;-63
2023/08/13 07:56:35;;;;;;;5.23;2.73;;;;;;;;;;5046422;28;20263;-62
2023/08/13 07:59:00;;;;;;;4.18;2.60;;;;;;;;;;5052926;28;20139;-63
2023/08/13 08:01:28;;;;;;;4.00;3.10;;;;;;;;;;5046854;28;20041;-62
2023/08/13 08:03:54;;;;;;;4.32;2.70;;;;;;;;;;5047571;28;20281;-63
2023/08/13 08:06:19;;;;;;;4.00;2.67;;;;;;;;;;5050471;28;20048;-63
2023/08/13 08:08:44;;;;;;;4.63;3.00;;;;;;;;;;5045445;28;20045;-63
2023/08/13 08:11:09;;;;;;;3.87;2.70;;;;;;;;;;5050508;28;20048;-61
2023/08/13 08:13:35;;;;;;;4.07;2.97;;;;;;;;;;5051513;28;20380;-62
2023/08/13 08:16:00;;;;;;;5.53;3.13;;;;;;;;;;5052766;28;20168;-61
2023/08/13 08:18:27;;;;;;;3.38;2.83;;;;;;;;;;5050033;28;20045;-61
2023/08/13 08:20:52;;;;;;;8.88;3.03;;;;;;;;;;5028249;28;20036;-62
2023/08/13 08:23:18;;;;;;;3.83;2.90;;;;;;;;;;5043429;28;20036;-61
2023/08/13 08:25:44;;;;;;;5.00;2.58;;;;;;;;;;5046385;28;20280;-61
2023/08/13 08:28:10;;;;;;;4.75;2.80;;;;;;;;;;5045593;28;20045;-62
2023/08/13 08:30:35;;;;;;;3.20;2.42;;;;;;;;;;4998838;28;20033;-61
2023/08/13 08:33:00;;;;;;;4.63;2.50;;;;;;;;;;5022523;28;20044;-61
2023/08/13 08:35:25;;;;;;;2.83;2.30;;;;;;;;;;5021518;28;20292;-61
2023/08/13 08:37:51;;;;;;;5.10;2.70;;;;;;;;;;5021688;28;20044;-64
2023/08/13 08:40:16;;;;;;;6.30;2.50;;;;;;;;;;5019997;28;20044;-63
2023/08/13 08:42:41;;;;;;;5.50;2.60;;;;;;;;;;5021279;28;20372;-62
2023/08/13 08:45:07;;;;;;;3.60;2.55;;;;;;;;;;5020955;28;20041;-61
2023/08/13 08:47:32;;;;;;;3.42;2.50;;;;;;;;;;5007932;28;20196;-61
2023/08/13 08:50:00;;;;;;;4.43;2.55;;;;;;;;;;5024136;28;20075;-62
2023/08/13 08:52:25;;;;;;;4.25;2.35;;;;;;;;;;5014863;28;20037;-61
2023/08/13 08:54:51;;;;;;;2.73;2.20;;;;;;;;;;5014356;28;20048;-62
2023/08/13 08:57:16;;;;;;;3.40;2.55;;;;;;;;;;5031910;28;20044;-62
2023/08/13 08:59:42;;;;;;;3.57;2.30;;;;;;;;;;5028058;28;20049;-60
2023/08/13 09:02:07;;;;;;;3.00;2.13;;;;;;;;;;5008843;28;20041;-62
2023/08/13 09:04:32;;;;;;;3.63;2.37;;;;;;;;;;5011187;28;20095;-61
2023/08/13 09:06:59;;;;;;;3.97;2.40;;;;;;;;;;5032100;28;20033;-61
2023/08/13 09:09:24;;;;;;;3.28;2.50;;;;;;;;;;5025752;28;20359;-60
2023/08/13 09:11:50;;;;;;;5.55;2.50;;;;;;;;;;5023113;28;20491;-60
2023/08/13 09:14:15;;;;;;;4.47;2.42;;;;;;;;;;5023554;28;20057;-61
2023/08/13 09:16:47;;;;;;;3.13;2.33;;;;;;;;;;5002355;28;20541;-61
2023/08/13 09:19:12;;;;;;;4.13;2.42;;;;;;;;;;5021091;28;20382;-60
2023/08/13 09:21:37;;;;;;;3.38;2.20;;;;;;;;;;5003530;28;20042;-59
2023/08/13 09:24:03;;;;;;;3.70;2.22;;;;;;;;;;5020678;28;20499;-63
2023/08/13 09:26:28;;;;;;;4.35;2.70;;;;;;;;;;5025577;28;20037;-60
2023/08/13 09:28:53;;;;;;;3.47;2.10;;;;;;;;;;5032197;28;20049;-60
2023/08/13 09:31:19;;;;;;;5.37;2.30;;;;;;;;;;5028403;28;20074;-61
2023/08/13 09:33:47;;;;;;;5.07;2.50;;;;;;;;;;5008852;28;20056;-61
2023/08/13 09:36:12;;;;;;;5.55;2.40;;;;;;;;;;5022374;28;20063;-62
2023/08/13 09:38:37;;;;;;;3.90;2.58;;;;;;;;;;5005267;28;20791;-61
2023/08/13 09:41:03;;;;;;;3.40;2.40;;;;;;;;;;5021382;28;20123;-66
2023/08/13 09:43:28;;;;;;;5.60;2.50;;;;;;;;;;5019055;28;20292;-60
2023/08/13 09:45:54;;;;;;;5.23;2.50;;;;;;;;;;5022804;28;20418;-63
2023/08/13 09:48:21;;;;;;;3.85;2.50;;;;;;;;;;5016316;28;20319;-61
2023/08/13 09:50:46;;;;;;;5.95;2.80;;;;;;;;;;5033263;22;20089;-61
2023/08/13 09:53:12;;;;;;;3.72;2.60;;;;;;;;;;5024587;28;20037;-61
2023/08/13 09:55:43;;;;;;;5.18;2.50;;;;;;;;;;5028156;28;20419;-59
2023/08/13 09:58:08;;;;;;;3.38;2.63;;;;;;;;;;5032454;28;20150;-62
2023/08/13 10:00:33;;;;;;;4.83;2.93;;;;;;;;;;5051761;28;20557;-61
2023/08/13 10:02:59;;;;;;;4.05;2.60;;;;;;;;;;5022865;28;20287;-61
2023/08/13 10:05:24;;;;;;;4.75;2.70;;;;;;;;;;5035425;28;20033;-59
2023/08/13 10:07:50;;;;;;;4.40;2.90;;;;;;;;;;5034833;28;20454;-60
2023/08/13 10:10:15;;;;;;;4.53;3.10;;;;;;;;;;5029985;23;20303;-63
2023/08/13 10:12:40;;;;;;;3.13;2.37;;;;;;;;;;5013370;28;20522;-61
2023/08/13 10:15:06;;;;;;;4.13;2.55;;;;;;;;;;5010191;28;20281;-61
2023/08/13 10:17:32;;;;;;;4.32;2.40;;;;;;;;;;5011544;28;20710;-64
2023/08/13 10:19:57;;;;;;;4.75;2.55;;;;;;;;;;5011572;28;20725;-61
2023/08/13 10:22:23;;;;;;;3.70;2.40;;;;;;;;;;5009139;28;20026;-61
2023/08/13 10:24:49;;;;;;;3.30;2.55;;;;;;;;;;5014018;28;20055;-61
2023/08/13 10:27:14;;;;;;;4.20;2.77;;;;;;;;;;5011145;28;20478;-63
2023/08/13 10:29:42;;;;;;;4.60;2.50;;;;;;;;;;5009024;28;20316;-60
2023/08/13 10:32:11;;;;;;;4.63;2.53;;;;;;;;;;5012344;28;20383;-60
2023/08/13 10:34:50;;;;;;;3.90;2.50;;;;;;;;;;5010376;28;20117;-59
2023/08/13 10:37:15;;;;;;;5.03;2.80;;;;;;;;;;5019500;28;20125;-63
2023/08/13 10:39:41;;;;;;;3.50;2.80;;;;;;;;;;5020876;28;20555;-61
2023/08/13 10:42:25;;;;;;;5.03;2.30;;;;;;;;;;5021083;28;20535;-60
2023/08/13 10:44:51;;;;;;;6.05;2.88;;;;;;;;;;5014694;28;20040;-61
2023/08/13 10:47:16;;;;;;;5.40;3.00;;;;;;;;;;5012735;28;20033;-61
2023/08/13 10:49:41;;;;;;;3.53;2.63;;;;;;;;;;5013414;28;20308;-61
2023/08/13 10:52:07;;;;;;;3.50;2.70;;;;;;;;;;5009632;28;20024;-60
2023/08/13 10:54:32;;;;;;;3.20;2.60;;;;;;;;;;5011375;28;20363;-62
2023/08/13 10:56:58;;;;;;;4.43;2.90;;;;;;;;;;5009513;28;20343;-60
2023/08/13 10:59:33;;;;;;;3.63;2.58;;;;;;;;;;5025896;28;20079;-61
2023/08/13 11:02:18;;;;;;;4.97;3.03;;;;;;;;;;5011315;28;20419;-62
2023/08/13 11:04:44;;;;;;;3.55;2.47;;;;;;;;;;5014100;28;20333;-62
2023/08/13 11:07:10;;;;;;;6.20;2.97;;;;;;;;;;5006492;28;20055;-62
2023/08/13 11:09:35;;;;;;;3.58;2.47;;;;;;;;;;5007127;28;20038;-61
2023/08/13 11:12:00;;;;;;;5.30;2.60;;;;;;;;;;5006595;28;20128;-61
2023/08/13 11:14:26;;;;;;;3.33;2.73;;;;;;;;;;5007100;28;20440;-60
2023/08/13 11:16:51;;;;;;;4.68;2.70;;;;;;;;;;5010087;28;22219;-62
2023/08/13 11:19:16;;;;;;;4.47;2.42;;;;;;;;;;5006240;28;20042;-63
2023/08/13 11:21:42;;;;;;;4.33;3.00;;;;;;;;;;5012137;28;20029;-62
2023/08/13 11:24:11;;;;;;;3.55;2.67;;;;;;;;;;5014186;28;20034;-61
2023/08/13 11:26:36;;;;;;;3.35;3.03;;;;;;;;;;5006608;28;20033;-63
2023/08/13 11:29:01;;;;;;;3.05;2.75;;;;;;;;;;5015208;28;20048;-63
2023/08/13 11:31:27;;;;;;;4.20;3.00;;;;;;;;;;5013938;28;20052;-61
2023/08/13 11:33:52;;;;;;;4.60;3.27;;;;;;;;;;5008938;28;20045;-61
2023/08/13 11:50:24;;;;;;;4.40;3.13;;;;;;;;;;3195201;22;20132;-75
2023/08/13 11:53:01;;;;;;;4.18;2.72;;;;;;;;;;5022477;28;20191;-74
2023/08/13 11:55:27;;;;;;;3.53;2.90;;;;;;;;;;5012406;28;20029;-73
2023/08/13 11:57:52;;;;;;;4.47;3.10;;;;;;;;;;5024581;28;20033;-74
2023/08/13 12:02:56;;;;;;;3.17;2.65;;;;;;;;;;5004756;23;20045;-60
2023/08/13 12:05:25;;;;;;;4.07;3.28;;;;;;;;;;5004736;28;20501;-61
2023/08/13 12:07:52;;;;;;;3.45;2.70;;;;;;;;;;5006780;28;20064;-62
2023/08/13 12:10:19;;;;;;;4.88;3.47;;;;;;;;;;5007312;28;20061;-63
2023/08/13 12:12:44;;;;;;;3.30;2.97;;;;;;;;;;5007755;28;20038;-61
2023/08/13 12:15:10;;;;;;;3.85;2.80;;;;;;;;;;4998687;28;20048;-62
2023/08/13 12:17:36;;;;;;;4.15;2.80;;;;;;;;;;5017322;28;20124;-61
2023/08/13 12:20:03;;;;;;;3.42;2.80;;;;;;;;;;5016795;28;20033;-62
2023/08/13 12:22:28;;;;;;;4.72;3.10;;;;;;;;;;5007569;28;20045;-61
2023/08/13 12:24:54;;;;;;;4.07;2.80;;;;;;;;;;5000534;28;20046;-61
2023/08/13 12:27:23;;;;;;;4.30;2.55;;;;;;;;;;4983780;28;20609;-62
2023/08/13 12:29:49;;;;;;;4.60;3.00;;;;;;;;;;4997111;28;20456;-62
2023/08/13 12:32:14;;;;;;;5.57;2.60;;;;;;;;;;5011126;23;20485;-61
2023/08/13 12:34:40;;;;;;;3.80;2.88;;;;;;;;;;4994329;28;20073;-60
2023/08/13 12:37:05;;;;;;;4.63;2.95;;;;;;;;;;5002747;28;20092;-60
2023/08/13 12:39:31;;;;;;;3.55;2.60;;;;;;;;;;4998273;28;20050;-61
2023/08/13 12:41:56;;;;;;;3.55;2.60;;;;;;;;;;4999211;28;20458;-62
2023/08/13 12:44:22;;;;;;;5.85;2.85;;;;;;;;;;4993957;23;20042;-62
2023/08/13 12:46:48;;;;;;;5.28;2.70;;;;;;;;;;4990475;28;20039;-63
2023/08/13 12:49:14;;;;;;;4.18;2.60;;;;;;;;;;4981676;28;20061;-61
2023/08/13 12:51:39;;;;;;;3.40;2.72;;;;;;;;;;4951025;28;20047;-61
2023/08/13 12:54:05;;;;;;;3.67;2.72;;;;;;;;;;4988035;28;20030;-60
2023/08/13 12:56:31;;;;;;;2.67;2.40;;;;;;;;;;4985113;28;20035;-60
2023/08/13 12:58:57;;;;;;;3.63;2.85;;;;;;;;;;4971736;28;20045;-60
2023/08/13 13:01:23;;;;;;;4.85;2.65;;;;;;;;;;4980742;28;20038;-61
2023/08/13 13:03:48;;;;;;;5.85;2.90;;;;;;;;;;4994570;23;20463;-60
2023/08/13 13:06:13;;;;;;;3.65;2.50;;;;;;;;;;5011494;28;20420;-60
2023/08/13 13:08:38;;;;;;;3.40;2.77;;;;;;;;;;5004950;28;20418;-60
2023/08/13 13:11:04;;;;;;;4.80;2.80;;;;;;;;;;4998343;28;20655;-60
2023/08/13 13:13:29;;;;;;;4.55;2.92;;;;;;;;;;5006659;28;20044;-61
2023/08/13 13:15:55;;;;;;;4.03;3.03;;;;;;;;;;5025316;28;20437;-59
2023/08/13 13:18:20;;;;;;;4.90;3.00;;;;;;;;;;5025222;28;20284;-60
2023/08/13 13:20:46;;;;;;;4.22;2.78;;;;;;;;;;5025060;28;20061;-61
2023/08/13 13:23:11;;;;;;;4.25;2.60;;;;;;;;;;5024765;28;20120;-60
2023/08/13 13:25:38;;;;;;;4.38;2.83;;;;;;;;;;5015658;28;20507;-60
2023/08/13 13:28:04;;;;;;;5.28;3.10;;;;;;;;;;5024954;28;20184;-61
2023/08/13 13:30:32;;;;;;;3.67;2.85;;;;;;;;;;5023724;28;20080;-62
2023/08/13 13:32:59;;;;;;;4.00;2.72;;;;;;;;;;5020175;28;20103;-63
2023/08/13 13:35:25;;;;;;;3.60;2.72;;;;;;;;;;4998015;28;20033;-62
2023/08/13 13:37:51;;;;;;;4.28;3.10;;;;;;;;;;5023872;28;20029;-61
2023/08/13 13:40:17;;;;;;;3.67;2.83;;;;;;;;;;4998835;28;20037;-61
2023/08/13 13:42:44;;;;;;;4.57;2.80;;;;;;;;;;4995242;28;20033;-60
2023/08/13 13:45:10;;;;;;;4.85;3.10;;;;;;;;;;5018634;28;20057;-61
2023/08/13 13:47:36;;;;;;;3.70;2.80;;;;;;;;;;5006755;28;20065;-61
2023/08/13 13:50:01;;;;;;;3.67;2.70;;;;;;;;;;5016593;28;20111;-62
2023/08/13 13:52:27;;;;;;;4.68;2.95;;;;;;;;;;5024326;28;20518;-60
2023/08/13 13:54:52;;;;;;;4.70;2.80;;;;;;;;;;5025763;28;20059;-60
2023/08/13 13:57:18;;;;;;;4.03;2.90;;;;;;;;;;5025176;28;20048;-61
2023/08/13 13:59:44;;;;;;;5.72;2.70;;;;;;;;;;5024264;28;20045;-60
2023/08/13 14:02:09;;;;;;;4.88;2.67;;;;;;;;;;5024648;28;20038;-61
2023/08/13 14:04:34;;;;;;;3.10;2.38;;;;;;;;;;5025206;28;20454;-61
2023/08/13 14:07:00;;;;;;;4.13;2.90;;;;;;;;;;5024864;28;20138;-60
2023/08/13 14:09:25;;;;;;;3.70;2.50;;;;;;;;;;5024473;28;20302;-60
2023/08/13 14:11:51;;;;;;;5.32;2.67;;;;;;;;;;5024237;28;20041;-60
2023/08/13 14:14:16;;;;;;;3.17;2.67;;;;;;;;;;5025352;28;20034;-61
2023/08/13 14:16:42;;;;;;;4.38;2.33;;;;;;;;;;5024290;28;20033;-61
2023/08/13 14:19:07;;;;;;;4.53;2.95;;;;;;;;;;5024800;28;20069;-60
2023/08/13 14:21:32;;;;;;;3.67;2.60;;;;;;;;;;5023605;28;20080;-61
2023/08/13 14:23:58;;;;;;;4.13;3.00;;;;;;;;;;5023414;28;20513;-60
2023/08/13 14:26:23;;;;;;;4.15;2.42;;;;;;;;;;5024980;28;20041;-60
2023/08/13 14:28:49;;;;;;;4.43;2.53;;;;;;;;;;5023620;28;20053;-61
2023/08/13 14:31:14;;;;;;;3.58;2.55;;;;;;;;;;5021740;28;20562;-60
2023/08/13 14:33:40;;;;;;;3.67;2.73;;;;;;;;;;5024548;28;20575;-62
2023/08/13 14:36:05;;;;;;;5.47;3.20;;;;;;;;;;5003785;28;20383;-61
2023/08/13 14:38:31;;;;;;;3.22;2.67;;;;;;;;;;5020869;28;20129;-62
2023/08/13 14:40:57;;;;;;;3.80;2.70;;;;;;;;;;5027159;28;20079;-60
2023/08/13 14:43:22;;;;;;;3.45;2.78;;;;;;;;;;5028484;28;20083;-61
2023/08/13 14:45:49;;;;;;;4.60;3.08;;;;;;;;;;5028238;28;20503;-61
2023/08/13 14:48:15;;;;;;;3.97;2.83;;;;;;;;;;5030806;28;20034;-60
2023/08/13 14:50:40;;;;;;;4.65;3.20;;;;;;;;;;5026332;23;20051;-59
2023/08/13 14:53:05;;;;;;;4.78;2.60;;;;;;;;;;5011102;28;20417;-61
2023/08/13 14:55:31;;;;;;;5.68;2.83;;;;;;;;;;5000463;28;20060;-62
2023/08/13 14:58:01;;;;;;;3.35;2.60;;;;;;;;;;4998192;28;20419;-63
2023/08/13 15:00:29;;;;;;;4.97;3.10;;;;;;;;;;4988576;28;20042;-61
2023/08/13 15:02:57;;;;;;;4.70;3.00;;;;;;;;;;4969088;28;20073;-63
2023/08/13 15:05:23;;;;;;;3.35;2.83;;;;;;;;;;5001003;28;20500;-63
2023/08/13 15:07:50;;;;;;;4.13;2.95;;;;;;;;;;4988640;28;20038;-60
2023/08/13 15:10:17;;;;;;;4.63;2.90;;;;;;;;;;5019362;23;20045;-62
2023/08/13 15:12:44;;;;;;;4.50;2.88;;;;;;;;;;5025708;28;20037;-65